Oriental Freesia — ZGCD7 — position and weather

sailwx.info

Track history (hours):
 
Tides and Currents Weather Stations Pressure Air Temp Water Temp Dewpoint Dewpoint Depression Visibility Wind Speed Wind Dir Waves Ship Positions

Oriental Freesia

Last reported at 2014-Sep-16 11:08 UTC. Time now 2014-Sep-18 11:46 UTC.
Position N 40°45' E 029°30'.

Length 134 m; draft 8.2 m.

Type: Ship (hazmat cat A). MMSI: 319349000.

Date/timePositionNaut miles runAvg speedWind from/ knotsBaromVisibWave heightAir tempDewpointWater temp
2014-Sep-16 11:08N 40°45' E 029°30'5 8.4
2014-Sep-16 10:33N 40°44' E 029°24'5 4.7
2014-Sep-16 09:33N 40°43' E 029°18'1211.5
2014-Sep-16 08:33N 40°44' E 029°03'1411.1
2014-Sep-16 07:17N 40°56' E 028°54'1 0.2
2014-Sep-15 23:22N 40°57' E 028°52'0 0.0
2014-Sep-15 21:22N 40°57' E 028°52'1 0.3
2014-Sep-15 19:06N 40°57' E 028°51'3 5.0
2014-Sep-15 18:32N 40°54' E 028°53'  
2014-Sep-12 11:33N 37°35' E 025°52'1212.4
2014-Sep-12 10:33N 37°24' E 025°56'1212.3
2014-Sep-12 09:33N 37°12' E 026°03'1212.2
2014-Sep-12 08:33N 37°01' E 026°10'1211.8
2014-Sep-12 07:33N 36°52' E 026°19'1311.9
2014-Sep-12 06:28N 36°43' E 026°30'1212.2
2014-Sep-12 05:31N 36°34' E 026°39'1212.2
2014-Sep-12 04:32N 36°25' E 026°49'1212.4
2014-Sep-12 03:33N 36°16' E 026°60'  
Track history (hours):
 
Tides and Currents Weather Stations Pressure Air Temp Water Temp Dewpoint Dewpoint Depression Visibility Wind Speed Wind Dir Waves Ship Positions

Oriental Freesia

Last reported at 2014-Sep-16 11:08 UTC. Time now 2014-Sep-18 11:46 UTC.
Position N 40°45' E 029°30'.

Length 134 m; draft 8.2 m.

Type: Ship (hazmat cat A). MMSI: 319349000.

Date/timePositionNaut miles runAvg speedWind from/ knotsBaromVisibWave heightAir tempDewpointWater temp
2014-Sep-16 11:08N 40°45' E 029°30'5 8.4
2014-Sep-16 10:33N 40°44' E 029°24'5 4.7
2014-Sep-16 09:33N 40°43' E 029°18'1211.5
2014-Sep-16 08:33N 40°44' E 029°03'1411.1
2014-Sep-16 07:17N 40°56' E 028°54'1 0.2
2014-Sep-15 23:22N 40°57' E 028°52'0 0.0
2014-Sep-15 21:22N 40°57' E 028°52'1 0.3
2014-Sep-15 19:06N 40°57' E 028°51'3 5.0
2014-Sep-15 18:32N 40°54' E 028°53'  
2014-Sep-12 11:33N 37°35' E 025°52'1212.4
2014-Sep-12 10:33N 37°24' E 025°56'1212.3
2014-Sep-12 09:33N 37°12' E 026°03'1212.2
2014-Sep-12 08:33N 37°01' E 026°10'1211.8
2014-Sep-12 07:33N 36°52' E 026°19'1311.9
2014-Sep-12 06:28N 36°43' E 026°30'1212.2
2014-Sep-12 05:31N 36°34' E 026°39'1212.2
2014-Sep-12 04:32N 36°25' E 026°49'1212.4
2014-Sep-12 03:33N 36°16' E 026°60'  

Dump ship's entire track history